createdAt,value
2019-04-25T00:01:13.993Z,4.30
2019-04-25T00:03:43.698Z,4.43
2019-04-25T00:06:14.485Z,7.80
2019-04-25T00:08:44.108Z,4.10
2019-04-25T00:11:13.035Z,5.50
2019-04-25T00:13:42.788Z,4.40
2019-04-25T00:16:12.778Z,6.13
2019-04-25T00:18:42.776Z,4.40
2019-04-25T00:21:22.110Z,7.23
2019-04-25T00:23:55.667Z,4.70
2019-04-25T00:26:32.860Z,7.20
2019-04-25T00:29:01.970Z,4.93
2019-04-25T00:31:32.019Z,5.93
2019-04-25T00:34:02.195Z,4.40
2019-04-25T00:36:31.878Z,4.77
2019-04-25T00:39:01.969Z,6.13
2019-04-25T00:41:32.059Z,4.47
2019-04-25T00:44:02.420Z,6.03
2019-04-25T00:46:32.182Z,6.17
2019-04-25T00:49:02.442Z,5.43
2019-04-25T00:51:31.782Z,3.70
2019-04-25T00:54:02.413Z,4.73
2019-04-25T00:56:32.192Z,5.30
2019-04-25T00:59:07.252Z,6.03
2019-04-25T01:01:47.930Z,7.53
2019-04-25T01:04:17.504Z,5.50
2019-04-25T01:06:46.191Z,4.67
2019-04-25T01:09:17.164Z,4.77
2019-04-25T01:11:45.971Z,5.57
2019-04-25T01:14:14.687Z,4.23
2019-04-25T01:16:43.399Z,5.83
2019-04-25T01:19:13.408Z,5.47
2019-04-25T01:21:43.902Z,7.47
2019-04-25T01:24:14.130Z,5.37
2019-04-25T01:26:43.890Z,7.60
2019-04-25T01:29:13.598Z,5.57
2019-04-25T01:31:43.424Z,6.97
2019-04-25T01:34:14.252Z,6.20
2019-04-25T01:36:50.808Z,5.33
2019-04-25T01:39:47.740Z,5.03
2019-04-25T01:42:33.785Z,5.10
2019-04-25T01:45:06.717Z,4.27
2019-04-25T01:47:35.460Z,5.90
2019-04-25T01:50:04.605Z,7.00
2019-04-25T01:52:33.515Z,6.00
2019-04-25T01:55:03.500Z,6.10
2019-04-25T01:57:33.711Z,5.47
2019-04-25T02:00:03.914Z,4.67
2019-04-25T02:02:33.597Z,5.83
2019-04-25T02:05:04.759Z,8.80
2019-04-25T02:07:33.687Z,5.07
2019-04-25T02:10:03.754Z,5.13
2019-04-25T02:12:41.596Z,6.00
2019-04-25T02:15:13.735Z,11.53
2019-04-25T02:17:43.882Z,9.90
2019-04-25T02:20:13.964Z,6.10
2019-04-25T02:22:44.193Z,5.77
2019-04-25T02:25:13.345Z,8.10
2019-04-25T02:27:41.995Z,6.17
2019-04-25T02:30:11.664Z,5.17
2019-04-25T02:32:40.324Z,6.40
2019-04-25T02:35:09.905Z,7.57
2019-04-25T02:37:38.728Z,7.87
2019-04-25T02:40:08.447Z,6.47
2019-04-25T02:42:37.623Z,6.40
2019-04-25T02:45:16.604Z,6.53
2019-04-25T02:48:05.669Z,7.80
2019-04-25T02:50:50.181Z,7.53
2019-04-25T02:53:39.213Z,7.33
2019-04-25T02:56:26.034Z,8.23
2019-04-25T02:58:38.151Z,8.07
2019-04-25T03:01:17.942Z,8.10
2019-04-25T03:03:38.714Z,7.30
2019-04-25T03:06:09.378Z,9.10
2019-04-25T03:08:37.746Z,8.47
2019-04-25T03:11:07.873Z,9.47
2019-04-25T03:13:36.708Z,6.17
2019-04-25T03:16:08.861Z,8.17
2019-04-25T03:18:40.680Z,6.20
2019-04-25T03:21:17.513Z,8.93
2019-04-25T03:23:46.814Z,7.43
2019-04-25T03:26:15.427Z,9.47
2019-04-25T03:28:44.258Z,6.67
2019-04-25T03:31:18.579Z,8.63
2019-04-25T03:33:45.919Z,7.47
2019-04-25T03:36:16.711Z,8.57
2019-04-25T03:38:44.325Z,9.37
2019-04-25T03:41:14.651Z,9.63
2019-04-25T03:43:44.210Z,8.80
2019-04-25T03:46:14.377Z,8.67
2019-04-25T03:48:44.127Z,7.57
2019-04-25T03:51:15.661Z,9.00
2019-04-25T03:53:44.654Z,8.13
2019-04-25T03:56:14.616Z,9.87
2019-04-25T03:58:43.952Z,9.27
2019-04-25T04:01:13.835Z,8.73
2019-04-25T04:03:43.989Z,8.73
2019-04-25T04:06:15.249Z,12.33
2019-04-25T04:08:44.338Z,8.57
2019-04-25T04:11:14.599Z,9.73
2019-04-25T04:13:44.839Z,8.60
2019-04-25T04:16:15.786Z,12.30
2019-04-25T04:18:46.362Z,8.77
2019-04-25T04:21:24.855Z,10.33
2019-04-25T04:24:11.791Z,9.90
2019-04-25T04:26:40.509Z,9.30
2019-04-25T04:29:10.025Z,8.77
2019-04-25T04:31:38.983Z,9.40
2019-04-25T04:34:08.539Z,7.67
2019-04-25T04:36:37.575Z,8.77
2019-04-25T04:39:07.786Z,7.50
2019-04-25T04:41:37.030Z,7.83
2019-04-25T04:44:05.728Z,8.53
2019-04-25T04:46:34.348Z,10.53
2019-04-25T04:49:03.865Z,8.70
2019-04-25T04:51:33.600Z,15.27
2019-04-25T04:54:03.408Z,7.33
2019-04-25T04:56:34.058Z,8.87
2019-04-25T04:59:03.698Z,7.70
2019-04-25T05:01:35.338Z,6.07
2019-04-25T05:04:10.694Z,6.43
2019-04-25T05:06:48.035Z,12.13
2019-04-25T05:09:20.657Z,8.27
2019-04-25T05:11:49.562Z,6.00
2019-04-25T05:14:18.239Z,9.03
2019-04-25T05:16:49.474Z,8.43
2019-04-25T05:19:18.051Z,7.20
2019-04-25T05:21:46.830Z,6.43
2019-04-25T05:24:16.419Z,7.20
2019-04-25T05:26:45.698Z,8.93
2019-04-25T05:29:19.769Z,13.17
2019-04-25T05:31:48.096Z,7.53
2019-04-25T05:34:17.230Z,6.57
2019-04-25T05:36:46.968Z,6.57
2019-04-25T05:39:17.743Z,8.13
2019-04-25T05:41:56.477Z,5.20
2019-04-25T05:44:27.338Z,5.97
2019-04-25T05:46:55.657Z,5.77
2019-04-25T05:49:25.212Z,7.07
2019-04-25T05:51:54.458Z,4.60
2019-04-25T05:54:24.793Z,7.63
2019-04-25T05:57:10.395Z,8.77
2019-04-25T05:59:38.959Z,8.23
2019-04-25T06:02:07.568Z,10.13
2019-04-25T06:04:36.248Z,7.07
2019-04-25T06:07:05.707Z,7.53
2019-04-25T06:09:54.430Z,7.97
2019-04-25T06:12:53.555Z,8.50
2019-04-25T06:15:26.228Z,9.83
2019-04-25T06:18:17.062Z,6.13
2019-04-25T06:20:45.791Z,8.20
2019-04-25T06:23:32.308Z,6.60
2019-04-25T06:26:16.077Z,7.87
2019-04-25T06:28:34.522Z,8.90
2019-04-25T06:31:04.449Z,7.87
2019-04-25T06:33:33.913Z,5.77
2019-04-25T06:36:04.163Z,5.80
2019-04-25T06:38:33.498Z,9.10
2019-04-25T06:41:03.577Z,5.87
2019-04-25T06:43:34.106Z,6.83
2019-04-25T06:46:40.125Z,9.80
2019-04-25T06:49:13.480Z,7.30
2019-04-25T06:51:54.207Z,9.80
2019-04-25T06:54:25.279Z,10.53
2019-04-25T06:56:53.632Z,8.87
2019-04-25T06:59:25.566Z,6.47
2019-04-25T07:01:54.141Z,11.03
2019-04-25T07:04:26.205Z,8.00
2019-04-25T07:06:53.792Z,9.60
2019-04-25T07:09:24.427Z,8.43
2019-04-25T07:11:53.883Z,8.67
2019-04-25T07:14:25.492Z,7.80
2019-04-25T07:16:53.318Z,8.53
2019-04-25T07:19:24.770Z,9.97
2019-04-25T07:21:54.138Z,8.63
2019-04-25T07:24:24.837Z,6.57
2019-04-25T07:27:11.171Z,8.33
2019-04-25T07:29:48.948Z,9.37
2019-04-25T07:32:30.843Z,10.23
2019-04-25T07:35:03.631Z,8.70
2019-04-25T07:37:37.225Z,8.20
2019-04-25T07:40:06.399Z,9.40
2019-04-25T07:42:35.419Z,8.63
2019-04-25T07:45:06.076Z,6.50
2019-04-25T07:47:35.476Z,10.47
2019-04-25T07:50:05.740Z,8.20
2019-04-25T07:52:35.488Z,7.60
2019-04-25T07:55:04.792Z,7.67
2019-04-25T07:57:34.585Z,8.67
2019-04-25T08:00:05.134Z,8.90
2019-04-25T08:02:34.171Z,11.73
2019-04-25T08:05:10.958Z,5.23
2019-04-25T08:07:39.948Z,10.10
2019-04-25T08:10:09.173Z,7.03
2019-04-25T08:12:39.357Z,6.90
2019-04-25T08:15:20.239Z,10.17
2019-04-25T08:18:00.728Z,6.57
2019-04-25T08:20:30.482Z,8.93
2019-04-25T08:23:00.673Z,7.57
2019-04-25T08:25:29.389Z,7.27
2019-04-25T08:27:58.081Z,6.73
2019-04-25T08:30:27.090Z,6.87
2019-04-25T08:32:55.717Z,11.50
2019-04-25T08:35:24.380Z,8.20
2019-04-25T08:37:53.764Z,7.77
2019-04-25T08:40:23.761Z,8.07
2019-04-25T08:42:53.785Z,7.77
2019-04-25T08:45:25.102Z,6.80
2019-04-25T08:47:53.960Z,7.90
2019-04-25T08:50:37.525Z,10.28
2019-04-25T08:53:04.882Z,7.97
2019-04-25T08:55:48.319Z,8.25
2019-04-25T08:58:29.598Z,7.30
2019-04-25T09:01:06.780Z,8.87
2019-04-25T09:03:44.440Z,8.48
2019-04-25T09:06:14.221Z,9.48
2019-04-25T09:08:45.370Z,8.65
2019-04-25T09:11:14.007Z,7.55
2019-04-25T09:13:43.838Z,6.28
2019-04-25T09:16:13.822Z,6.20
2019-04-25T09:18:44.975Z,10.10
2019-04-25T09:21:14.565Z,6.55
2019-04-25T09:23:43.728Z,7.47
2019-04-25T09:26:14.285Z,7.08
2019-04-25T09:28:45.306Z,8.93
2019-04-25T09:31:14.061Z,6.10
2019-04-25T09:33:45.105Z,6.83
2019-04-25T09:36:14.182Z,5.25
2019-04-25T09:38:47.980Z,6.20
2019-04-25T09:41:15.256Z,10.55
2019-04-25T09:43:45.707Z,8.28
2019-04-25T09:46:20.084Z,9.83
2019-04-25T09:49:08.368Z,5.95
2019-04-25T09:52:44.355Z,5.37
2019-04-25T09:56:39.063Z,4.92
2019-04-25T10:04:14.784Z,8.38
2019-04-25T10:04:46.382Z,5.45
2019-04-25T10:07:24.657Z,7.72
2019-04-25T10:30:23.067Z,6.35
2019-04-25T10:32:59.496Z,6.70
2019-04-25T10:35:48.333Z,5.25
2019-04-25T11:18:58.462Z,6.92
2019-04-25T11:21:27.289Z,8.93
2019-04-25T11:23:56.349Z,6.20
2019-04-25T11:26:25.284Z,6.30
2019-04-25T11:28:56.465Z,6.45
2019-04-25T11:31:30.009Z,7.78
2019-04-25T11:33:58.979Z,6.15
2019-04-25T11:36:27.831Z,8.68
2019-04-25T11:39:23.926Z,7.65
2019-04-25T12:08:28.201Z,11.30
2019-04-25T12:20:23.806Z,7.22
2019-04-25T12:23:04.146Z,7.80
2019-04-25T14:06:54.251Z,4.70
2019-04-25T14:09:24.885Z,4.17
2019-04-25T14:11:54.419Z,6.72
2019-04-25T14:14:23.004Z,4.17
2019-04-25T14:17:03.011Z,7.62
2019-04-25T14:19:57.304Z,3.87
2019-04-25T14:22:27.581Z,6.67
2019-04-25T14:24:56.525Z,4.08
2019-04-25T14:27:26.296Z,8.25
2019-04-25T14:29:55.553Z,8.00
2019-04-25T14:32:28.906Z,3.02
2019-04-25T14:34:58.167Z,5.25
2019-04-25T14:37:32.319Z,4.60
2019-04-25T14:39:59.491Z,3.75
2019-04-25T14:42:28.658Z,3.72
2019-04-25T14:45:01.394Z,3.62
2019-04-25T14:47:30.029Z,4.33
2019-04-25T14:49:58.639Z,3.77
2019-04-25T14:52:29.622Z,4.58
2019-04-25T14:55:05.660Z,2.98
2019-04-25T14:57:35.031Z,4.65
2019-04-25T15:00:05.669Z,3.60
2019-04-25T15:02:36.883Z,3.62
2019-04-25T15:05:05.446Z,3.40
2019-04-25T15:07:34.340Z,3.42
2019-04-25T15:10:02.899Z,5.95
2019-04-25T15:12:31.821Z,4.37
2019-04-25T15:15:00.694Z,3.47
2019-04-25T15:17:29.681Z,4.97
2019-04-25T15:19:58.259Z,8.38
2019-04-25T15:22:27.930Z,5.53
2019-04-25T15:24:59.650Z,6.10
2019-04-25T15:27:30.096Z,8.23
2019-04-25T15:29:59.024Z,5.00
2019-04-25T15:32:31.036Z,3.40
2019-04-25T15:34:59.774Z,4.58
2019-04-25T15:37:36.471Z,4.22
2019-04-25T15:40:19.173Z,3.50
2019-04-25T15:42:55.577Z,3.55
2019-04-25T15:45:38.288Z,3.55
2019-04-25T15:48:08.256Z,3.62
2019-04-25T15:50:37.095Z,2.60
2019-04-25T15:53:06.004Z,2.98
2019-04-25T15:55:34.876Z,5.17
2019-04-25T15:58:04.046Z,4.90
2019-04-25T16:00:37.065Z,3.17
2019-04-25T16:03:07.261Z,4.70
2019-04-25T16:05:36.178Z,4.08
2019-04-25T16:08:04.795Z,5.70
2019-04-25T16:10:34.013Z,5.50
2019-04-25T16:13:02.628Z,3.70
2019-04-25T16:15:31.214Z,4.80
2019-04-25T16:17:59.878Z,7.55
2019-04-25T16:20:31.429Z,3.65
2019-04-25T16:23:00.128Z,3.33
2019-04-25T16:25:29.848Z,4.50
2019-04-25T16:27:58.442Z,2.58
2019-04-25T16:30:31.219Z,2.17
2019-04-25T16:32:59.767Z,2.15
2019-04-25T16:35:28.579Z,2.15
2019-04-25T16:37:58.487Z,2.50
2019-04-25T16:40:27.540Z,2.55
2019-04-25T16:42:59.272Z,1.85
2019-04-25T16:45:28.937Z,1.95
2019-04-25T16:47:58.281Z,4.08
2019-04-25T16:50:27.277Z,2.47
2019-04-25T16:52:55.832Z,4.95
2019-04-25T16:55:24.606Z,2.12
2019-04-25T16:57:53.420Z,2.37
2019-04-25T17:00:36.514Z,2.50
2019-04-25T17:03:05.121Z,3.42
2019-04-25T17:05:34.687Z,2.95
2019-04-25T17:08:03.255Z,2.00
2019-04-25T17:10:32.787Z,2.45
2019-04-25T17:13:01.511Z,3.35
2019-04-25T17:15:36.771Z,4.58
2019-04-25T17:18:08.615Z,4.47
2019-04-25T17:20:41.809Z,3.77
2019-04-25T17:23:12.104Z,4.40
2019-04-25T17:25:40.678Z,3.15
2019-04-25T17:28:12.546Z,4.22
2019-04-25T17:30:42.789Z,4.22
2019-04-25T17:33:17.896Z,2.12
2019-04-25T17:36:04.245Z,2.77
2019-04-25T17:38:42.444Z,2.77
2019-04-25T17:41:11.028Z,2.35
2019-04-25T17:43:39.630Z,2.65
2019-04-25T17:46:10.987Z,2.95
2019-04-25T17:48:40.512Z,2.10
2019-04-25T17:51:09.190Z,3.70
2019-04-25T17:53:39.024Z,4.55
2019-04-25T17:56:08.244Z,2.62
2019-04-25T17:58:37.258Z,3.63
2019-04-25T18:01:07.859Z,3.87
2019-04-25T18:03:37.295Z,3.00
2019-04-25T18:06:06.214Z,2.90
2019-04-25T18:08:35.627Z,2.87
2019-04-25T18:24:32.114Z,3.43
2019-04-25T18:27:12.651Z,1.47
2019-04-25T18:29:41.635Z,1.40
2019-04-25T18:32:10.426Z,3.33
2019-04-25T18:34:45.161Z,3.47
2019-04-25T18:37:37.199Z,2.60
2019-04-25T18:40:40.536Z,2.97
2019-04-25T18:43:14.021Z,2.00
2019-04-25T18:45:46.509Z,1.53
2019-04-25T18:48:16.574Z,1.20
2019-04-25T18:50:46.729Z,2.90
2019-04-25T18:53:35.171Z,2.57
2019-04-25T18:56:22.715Z,2.30
2019-04-25T18:59:19.060Z,3.57
2019-04-25T19:02:13.259Z,2.10
2019-04-25T19:05:07.139Z,3.07
2019-04-25T19:07:36.282Z,2.50
2019-04-25T19:10:06.039Z,5.57
2019-04-25T19:12:36.171Z,2.97
2019-04-25T19:15:04.866Z,2.97
2019-04-25T19:17:34.194Z,3.07
2019-04-25T19:20:02.803Z,2.77
2019-04-25T19:22:31.383Z,3.67
2019-04-25T19:24:59.971Z,2.73
2019-04-25T19:27:28.686Z,4.17
2019-04-25T19:29:57.263Z,5.10
2019-04-25T19:32:26.964Z,4.47
2019-04-25T19:34:55.647Z,4.30
2019-04-25T19:37:24.242Z,4.93
2019-04-25T19:40:12.578Z,5.50
2019-04-25T19:42:48.867Z,2.73
2019-04-25T19:45:17.634Z,4.53
2019-04-25T19:47:47.116Z,3.07
2019-04-25T19:50:15.895Z,3.63
2019-04-25T19:52:45.536Z,4.07
2019-04-25T19:55:14.674Z,4.73
2019-04-25T19:57:43.803Z,5.20
2019-04-25T20:00:12.974Z,3.63
2019-04-25T20:02:48.653Z,3.97
2019-04-25T20:05:41.893Z,4.70
2019-04-25T20:08:31.305Z,4.17
2019-04-25T20:11:08.344Z,3.80
2019-04-25T20:13:37.261Z,4.57
2019-04-25T20:16:05.878Z,5.00
2019-04-25T20:18:34.558Z,3.97
2019-04-25T20:21:03.334Z,5.83
2019-04-25T20:23:32.243Z,6.93
2019-04-25T20:26:01.141Z,5.50
2019-04-25T20:28:30.719Z,5.47
2019-04-25T20:30:59.299Z,5.53
2019-04-25T20:33:27.849Z,4.37
2019-04-25T20:35:56.428Z,6.53
2019-04-25T20:38:25.002Z,6.73
2019-04-25T20:40:53.914Z,5.37
2019-04-25T20:43:22.821Z,5.80
2019-04-25T20:45:52.408Z,5.97
2019-04-25T20:48:21.131Z,6.40
2019-04-25T20:50:50.366Z,4.13
2019-04-25T20:53:19.569Z,6.20
2019-04-25T20:55:48.731Z,4.47
2019-04-25T20:58:17.716Z,5.47
2019-04-25T21:00:49.641Z,6.37
2019-04-25T21:03:18.597Z,4.67
2019-04-25T21:05:49.650Z,5.87
2019-04-25T21:08:19.055Z,6.37
2019-04-25T21:10:47.967Z,7.30
2019-04-25T21:13:21.278Z,5.97
2019-04-25T21:16:09.126Z,6.83
2019-04-25T21:18:59.786Z,6.93
2019-04-25T21:21:28.523Z,7.27
2019-04-25T21:23:57.304Z,8.30
2019-04-25T21:26:26.039Z,5.67
2019-04-25T21:28:54.756Z,5.77
2019-04-25T21:31:23.435Z,6.40
2019-04-25T21:33:52.631Z,6.73
2019-04-25T21:36:21.653Z,6.60
2019-04-25T21:38:51.348Z,5.47
2019-04-25T21:41:38.782Z,5.50
2019-04-25T21:44:10.024Z,8.40
2019-04-25T21:46:38.639Z,5.97
2019-04-25T21:49:07.787Z,8.10
2019-04-25T21:51:36.351Z,5.27
2019-04-25T21:54:04.928Z,7.13
2019-04-25T21:56:34.204Z,7.93
2019-04-25T21:59:04.020Z,6.87
2019-04-25T22:01:35.604Z,6.87
2019-04-25T22:04:05.203Z,4.73
2019-04-25T22:06:34.519Z,5.67
2019-04-25T22:09:05.085Z,9.00
2019-04-25T22:11:33.973Z,7.33
2019-04-25T22:14:03.421Z,8.80
2019-04-25T22:16:32.591Z,8.10
2019-04-25T22:19:02.047Z,7.23
2019-04-25T22:21:37.978Z,7.40
2019-04-25T22:24:08.671Z,9.10
2019-04-25T22:26:31.756Z,7.73
2019-04-25T22:29:01.305Z,10.87
2019-04-25T22:31:35.019Z,8.90
2019-04-25T22:34:14.624Z,7.53
2019-04-25T22:36:43.891Z,6.93
2019-04-25T22:39:12.807Z,8.23
2019-04-25T22:41:46.270Z,8.43
2019-04-25T22:44:15.496Z,9.73
2019-04-25T22:46:44.783Z,8.97
2019-04-25T22:49:13.611Z,8.37
2019-04-25T22:51:42.255Z,7.47
2019-04-25T22:54:11.781Z,7.93
2019-04-25T22:56:40.438Z,9.30
2019-04-25T22:59:11.115Z,9.73
2019-04-25T23:01:57.846Z,7.57
2019-04-25T23:05:04.662Z,8.30
2019-04-25T23:07:25.398Z,8.37
2019-04-25T23:09:54.349Z,9.70
2019-04-25T23:12:23.570Z,10.37
2019-04-25T23:14:52.224Z,10.67
2019-04-25T23:17:21.043Z,9.53
2019-04-25T23:19:50.280Z,10.00
2019-04-25T23:22:18.927Z,8.70
2019-04-25T23:25:02.261Z,8.27
2019-04-25T23:27:43.447Z,11.50
2019-04-25T23:30:14.819Z,10.10
2019-04-25T23:32:43.951Z,9.03
2019-04-25T23:35:23.499Z,9.23
2019-04-25T23:37:43.082Z,10.03
2019-04-25T23:40:11.823Z,9.93
2019-04-25T23:42:40.539Z,12.63
2019-04-25T23:45:10.357Z,10.87
2019-04-25T23:47:39.208Z,10.00
2019-04-25T23:50:08.713Z,8.63
2019-04-25T23:52:37.510Z,8.50
2019-04-25T23:55:06.740Z,9.97
2019-04-25T23:57:36.624Z,9.03
